sensor_id;sensor_type;location;lat;lon;timestamp;temperature;humidity
12125;DHT22;6126;57.908;16.490;2023-06-14T00:02:07;10.10;75.40
12125;DHT22;6126;57.908;16.490;2023-06-14T00:04:34;10.10;75.70
12125;DHT22;6126;57.908;16.490;2023-06-14T00:07:01;10.20;76.00
12125;DHT22;6126;57.908;16.490;2023-06-14T00:09:27;10.20;76.10
12125;DHT22;6126;57.908;16.490;2023-06-14T00:11:53;10.00;76.00
12125;DHT22;6126;57.908;16.490;2023-06-14T00:14:19;10.10;76.30
12125;DHT22;6126;57.908;16.490;2023-06-14T00:16:45;10.00;76.20
12125;DHT22;6126;57.908;16.490;2023-06-14T00:19:11;10.20;76.60
12125;DHT22;6126;57.908;16.490;2023-06-14T00:21:37;9.70;77.30
12125;DHT22;6126;57.908;16.490;2023-06-14T00:24:04;10.10;76.80
12125;DHT22;6126;57.908;16.490;2023-06-14T00:26:30;9.90;77.80
12125;DHT22;6126;57.908;16.490;2023-06-14T00:28:56;9.90;77.90
12125;DHT22;6126;57.908;16.490;2023-06-14T00:31:23;9.70;77.80
12125;DHT22;6126;57.908;16.490;2023-06-14T00:33:48;9.60;77.80
12125;DHT22;6126;57.908;16.490;2023-06-14T00:36:14;9.70;78.00
12125;DHT22;6126;57.908;16.490;2023-06-14T00:38:40;9.60;78.00
12125;DHT22;6126;57.908;16.490;2023-06-14T00:41:06;9.30;78.10
12125;DHT22;6126;57.908;16.490;2023-06-14T00:43:32;9.40;78.40
12125;DHT22;6126;57.908;16.490;2023-06-14T00:46:00;9.40;78.60
12125;DHT22;6126;57.908;16.490;2023-06-14T00:48:27;9.40;78.80
12125;DHT22;6126;57.908;16.490;2023-06-14T00:50:54;9.30;79.00
12125;DHT22;6126;57.908;16.490;2023-06-14T00:53:21;9.10;78.80
12125;DHT22;6126;57.908;16.490;2023-06-14T00:55:48;9.20;79.10
12125;DHT22;6126;57.908;16.490;2023-06-14T00:58:14;8.90;79.00
12125;DHT22;6126;57.908;16.490;2023-06-14T01:00:40;9.00;79.10
12125;DHT22;6126;57.908;16.490;2023-06-14T01:03:06;8.90;79.20
12125;DHT22;6126;57.908;16.490;2023-06-14T01:05:33;8.60;79.10
12125;DHT22;6126;57.908;16.490;2023-06-14T01:08:21;8.80;79.40
12125;DHT22;6126;57.908;16.490;2023-06-14T01:11:10;8.90;79.60
12125;DHT22;6126;57.908;16.490;2023-06-14T01:13:42;8.60;79.50
12125;DHT22;6126;57.908;16.490;2023-06-14T01:16:12;8.70;79.50
12125;DHT22;6126;57.908;16.490;2023-06-14T01:18:38;8.50;79.60
12125;DHT22;6126;57.908;16.490;2023-06-14T01:21:20;8.70;79.90
12125;DHT22;6126;57.908;16.490;2023-06-14T01:23:50;8.80;80.10
12125;DHT22;6126;57.908;16.490;2023-06-14T01:26:23;8.60;79.80
12125;DHT22;6126;57.908;16.490;2023-06-14T01:28:50;8.60;79.90
12125;DHT22;6126;57.908;16.490;2023-06-14T01:31:20;8.60;80.00
12125;DHT22;6126;57.908;16.490;2023-06-14T01:33:50;8.50;79.90
12125;DHT22;6126;57.908;16.490;2023-06-14T01:36:19;8.40;79.80
12125;DHT22;6126;57.908;16.490;2023-06-14T01:38:48;8.50;80.00
12125;DHT22;6126;57.908;16.490;2023-06-14T01:41:17;8.50;80.00
12125;DHT22;6126;57.908;16.490;2023-06-14T01:43:46;8.50;80.10
12125;DHT22;6126;57.908;16.490;2023-06-14T01:46:15;8.40;80.20
12125;DHT22;6126;57.908;16.490;2023-06-14T01:48:42;8.70;80.50
12125;DHT22;6126;57.908;16.490;2023-06-14T01:51:08;8.50;80.40
12125;DHT22;6126;57.908;16.490;2023-06-14T01:53:34;8.50;80.40
12125;DHT22;6126;57.908;16.490;2023-06-14T01:56:00;8.70;80.70
12125;DHT22;6126;57.908;16.490;2023-06-14T01:58:26;8.50;80.50
12125;DHT22;6126;57.908;16.490;2023-06-14T02:00:52;8.50;80.70
12125;DHT22;6126;57.908;16.490;2023-06-14T02:03:21;8.40;80.60
12125;DHT22;6126;57.908;16.490;2023-06-14T02:05:47;8.40;80.70
12125;DHT22;6126;57.908;16.490;2023-06-14T02:08:12;8.30;80.70
12125;DHT22;6126;57.908;16.490;2023-06-14T02:10:38;8.50;80.90
12125;DHT22;6126;57.908;16.490;2023-06-14T02:13:04;8.30;80.50
12125;DHT22;6126;57.908;16.490;2023-06-14T02:15:30;8.30;80.70
12125;DHT22;6126;57.908;16.490;2023-06-14T02:18:00;8.40;81.00
12125;DHT22;6126;57.908;16.490;2023-06-14T02:20:27;8.40;81.20
12125;DHT22;6126;57.908;16.490;2023-06-14T02:22:53;8.40;81.10
12125;DHT22;6126;57.908;16.490;2023-06-14T02:25:20;8.20;80.80
12125;DHT22;6126;57.908;16.490;2023-06-14T02:27:45;8.50;81.20
12125;DHT22;6126;57.908;16.490;2023-06-14T02:30:12;8.30;81.00
12125;DHT22;6126;57.908;16.490;2023-06-14T02:32:38;8.00;80.90
12125;DHT22;6126;57.908;16.490;2023-06-14T02:35:06;8.20;81.30
12125;DHT22;6126;57.908;16.490;2023-06-14T02:37:33;8.20;81.50
12125;DHT22;6126;57.908;16.490;2023-06-14T02:39:59;8.10;81.40
12125;DHT22;6126;57.908;16.490;2023-06-14T02:42:25;8.00;81.30
12125;DHT22;6126;57.908;16.490;2023-06-14T02:44:51;8.20;81.50
12125;DHT22;6126;57.908;16.490;2023-06-14T02:47:18;8.30;81.70
12125;DHT22;6126;57.908;16.490;2023-06-14T02:49:44;7.80;81.30
12125;DHT22;6126;57.908;16.490;2023-06-14T02:52:12;7.80;81.40
12125;DHT22;6126;57.908;16.490;2023-06-14T02:54:38;7.90;81.60
12125;DHT22;6126;57.908;16.490;2023-06-14T02:57:04;8.00;81.80
12125;DHT22;6126;57.908;16.490;2023-06-14T02:59:32;7.90;81.70
12125;DHT22;6126;57.908;16.490;2023-06-14T03:01:58;8.10;81.90
12125;DHT22;6126;57.908;16.490;2023-06-14T03:04:24;8.30;82.10
12125;DHT22;6126;57.908;16.490;2023-06-14T03:06:52;8.40;82.20
12125;DHT22;6126;57.908;16.490;2023-06-14T03:09:19;8.20;81.80
12125;DHT22;6126;57.908;16.490;2023-06-14T03:11:45;8.50;82.00
12125;DHT22;6126;57.908;16.490;2023-06-14T03:14:11;8.30;81.80
12125;DHT22;6126;57.908;16.490;2023-06-14T03:16:39;8.20;81.70
12125;DHT22;6126;57.908;16.490;2023-06-14T03:19:06;8.40;81.80
12125;DHT22;6126;57.908;16.490;2023-06-14T03:21:32;8.50;82.00
12125;DHT22;6126;57.908;16.490;2023-06-14T03:24:00;8.40;82.00
12125;DHT22;6126;57.908;16.490;2023-06-14T03:26:26;8.40;82.20
12125;DHT22;6126;57.908;16.490;2023-06-14T03:28:51;8.20;82.10
12125;DHT22;6126;57.908;16.490;2023-06-14T03:31:17;8.40;82.30
12125;DHT22;6126;57.908;16.490;2023-06-14T03:33:44;8.20;82.10
12125;DHT22;6126;57.908;16.490;2023-06-14T03:36:10;8.70;82.50
12125;DHT22;6126;57.908;16.490;2023-06-14T03:38:36;8.50;82.30
12125;DHT22;6126;57.908;16.490;2023-06-14T03:41:02;8.60;82.40
12125;DHT22;6126;57.908;16.490;2023-06-14T03:43:28;8.60;82.20
12125;DHT22;6126;57.908;16.490;2023-06-14T03:45:55;8.80;82.30
12125;DHT22;6126;57.908;16.490;2023-06-14T03:48:21;8.70;82.10
12125;DHT22;6126;57.908;16.490;2023-06-14T03:50:47;9.00;82.10
12125;DHT22;6126;57.908;16.490;2023-06-14T03:53:13;9.40;82.30
12125;DHT22;6126;57.908;16.490;2023-06-14T03:55:39;9.20;81.90
12125;DHT22;6126;57.908;16.490;2023-06-14T03:58:05;9.70;82.20
12125;DHT22;6126;57.908;16.490;2023-06-14T04:00:31;9.50;81.90
12125;DHT22;6126;57.908;16.490;2023-06-14T04:02:57;9.60;82.00
12125;DHT22;6126;57.908;16.490;2023-06-14T04:05:24;9.70;82.10
12125;DHT22;6126;57.908;16.490;2023-06-14T04:07:52;10.50;81.50
12125;DHT22;6126;57.908;16.490;2023-06-14T04:10:21;10.70;80.20
12125;DHT22;6126;57.908;16.490;2023-06-14T04:12:47;11.00;79.70
12125;DHT22;6126;57.908;16.490;2023-06-14T04:15:13;11.30;79.70
12125;DHT22;6126;57.908;16.490;2023-06-14T04:17:39;11.60;79.60
12125;DHT22;6126;57.908;16.490;2023-06-14T04:20:06;12.70;79.10
12125;DHT22;6126;57.908;16.490;2023-06-14T04:22:34;14.10;77.90
12125;DHT22;6126;57.908;16.490;2023-06-14T04:25:02;15.30;75.60
12125;DHT22;6126;57.908;16.490;2023-06-14T04:27:29;16.80;73.50
12125;DHT22;6126;57.908;16.490;2023-06-14T04:29:56;18.00;71.10
12125;DHT22;6126;57.908;16.490;2023-06-14T04:32:26;19.00;69.00
12125;DHT22;6126;57.908;16.490;2023-06-14T04:34:53;19.70;67.30
12125;DHT22;6126;57.908;16.490;2023-06-14T04:37:21;20.30;66.00
12125;DHT22;6126;57.908;16.490;2023-06-14T04:39:48;20.80;64.90
12125;DHT22;6126;57.908;16.490;2023-06-14T04:42:14;21.40;63.90
12125;DHT22;6126;57.908;16.490;2023-06-14T04:44:42;21.80;63.00
12125;DHT22;6126;57.908;16.490;2023-06-14T04:47:12;21.80;62.60
12125;DHT22;6126;57.908;16.490;2023-06-14T04:49:39;21.40;63.30
12125;DHT22;6126;57.908;16.490;2023-06-14T04:52:06;20.70;64.50
12125;DHT22;6126;57.908;16.490;2023-06-14T04:54:36;20.10;65.70
12125;DHT22;6126;57.908;16.490;2023-06-14T04:57:07;19.50;67.00
12125;DHT22;6126;57.908;16.490;2023-06-14T04:59:34;19.10;68.40
12125;DHT22;6126;57.908;16.490;2023-06-14T05:02:01;18.70;69.20
12125;DHT22;6126;57.908;16.490;2023-06-14T05:04:27;18.10;69.40
12125;DHT22;6126;57.908;16.490;2023-06-14T05:06:54;18.40;70.40
12125;DHT22;6126;57.908;16.490;2023-06-14T05:09:20;18.20;71.30
12125;DHT22;6126;57.908;16.490;2023-06-14T05:11:46;17.90;70.30
12125;DHT22;6126;57.908;16.490;2023-06-14T05:14:14;18.00;70.60
12125;DHT22;6126;57.908;16.490;2023-06-14T05:16:40;18.10;70.70
12125;DHT22;6126;57.908;16.490;2023-06-14T05:19:06;18.00;70.70
12125;DHT22;6126;57.908;16.490;2023-06-14T05:21:33;17.90;70.60
12125;DHT22;6126;57.908;16.490;2023-06-14T05:24:03;18.00;70.60
12125;DHT22;6126;57.908;16.490;2023-06-14T05:26:29;18.00;70.70
12125;DHT22;6126;57.908;16.490;2023-06-14T05:28:58;17.90;70.60
12125;DHT22;6126;57.908;16.490;2023-06-14T05:31:25;17.90;70.60
12125;DHT22;6126;57.908;16.490;2023-06-14T05:33:52;18.00;70.60
12125;DHT22;6126;57.908;16.490;2023-06-14T05:36:20;17.90;70.50
12125;DHT22;6126;57.908;16.490;2023-06-14T05:38:49;18.00;70.40
12125;DHT22;6126;57.908;16.490;2023-06-14T05:41:16;17.70;70.00
12125;DHT22;6126;57.908;16.490;2023-06-14T05:43:42;18.10;70.30
12125;DHT22;6126;57.908;16.490;2023-06-14T05:46:08;18.30;70.30
12125;DHT22;6126;57.908;16.490;2023-06-14T05:48:34;18.00;69.70
12125;DHT22;6126;57.908;16.490;2023-06-14T05:51:00;18.00;70.30
12125;DHT22;6126;57.908;16.490;2023-06-14T05:53:26;17.90;69.20
12125;DHT22;6126;57.908;16.490;2023-06-14T05:55:52;18.30;69.50
12125;DHT22;6126;57.908;16.490;2023-06-14T05:58:20;18.20;69.00
12125;DHT22;6126;57.908;16.490;2023-06-14T06:00:47;18.30;68.90
12125;DHT22;6126;57.908;16.490;2023-06-14T06:03:13;18.30;68.80
12125;DHT22;6126;57.908;16.490;2023-06-14T06:05:39;18.00;68.30
12125;DHT22;6126;57.908;16.490;2023-06-14T06:08:05;18.70;69.00
12125;DHT22;6126;57.908;16.490;2023-06-14T06:10:31;18.40;68.60
12125;DHT22;6126;57.908;16.490;2023-06-14T06:12:57;18.30;68.50
12125;DHT22;6126;57.908;16.490;2023-06-14T06:15:23;18.70;68.80
12125;DHT22;6126;57.908;16.490;2023-06-14T06:17:49;18.50;68.50
12125;DHT22;6126;57.908;16.490;2023-06-14T06:20:16;18.70;68.60
12125;DHT22;6126;57.908;16.490;2023-06-14T06:22:42;18.50;68.20
12125;DHT22;6126;57.908;16.490;2023-06-14T06:25:08;18.70;68.30
12125;DHT22;6126;57.908;16.490;2023-06-14T06:27:35;18.80;68.10
12125;DHT22;6126;57.908;16.490;2023-06-14T06:30:03;18.50;67.50
12125;DHT22;6126;57.908;16.490;2023-06-14T06:32:30;18.70;67.60
12125;DHT22;6126;57.908;16.490;2023-06-14T06:34:56;18.90;67.60
12125;DHT22;6126;57.908;16.490;2023-06-14T06:37:22;18.60;67.10
12125;DHT22;6126;57.908;16.490;2023-06-14T06:39:48;18.80;67.20
12125;DHT22;6126;57.908;16.490;2023-06-14T06:42:14;18.80;67.00
12125;DHT22;6126;57.908;16.490;2023-06-14T06:44:40;18.90;67.10
12125;DHT22;6126;57.908;16.490;2023-06-14T06:47:06;18.90;66.90
12125;DHT22;6126;57.908;16.490;2023-06-14T06:49:32;19.00;66.80
12125;DHT22;6126;57.908;16.490;2023-06-14T06:52:04;19.00;66.60
12125;DHT22;6126;57.908;16.490;2023-06-14T06:54:31;19.10;66.60
12125;DHT22;6126;57.908;16.490;2023-06-14T06:56:57;19.20;66.50
12125;DHT22;6126;57.908;16.490;2023-06-14T06:59:24;19.20;66.30
12125;DHT22;6126;57.908;16.490;2023-06-14T07:01:50;19.30;66.20
12125;DHT22;6126;57.908;16.490;2023-06-14T07:04:16;19.30;65.90
12125;DHT22;6126;57.908;16.490;2023-06-14T07:06:42;19.40;65.80
12125;DHT22;6126;57.908;16.490;2023-06-14T07:09:09;19.50;65.80
12125;DHT22;6126;57.908;16.490;2023-06-14T07:11:43;19.50;65.60
12125;DHT22;6126;57.908;16.490;2023-06-14T07:14:10;19.60;65.30
12125;DHT22;6126;57.908;16.490;2023-06-14T07:16:36;19.70;65.20
12125;DHT22;6126;57.908;16.490;2023-06-14T07:19:03;19.80;65.00
12125;DHT22;6126;57.908;16.490;2023-06-14T07:21:29;19.90;65.60
12125;DHT22;6126;57.908;16.490;2023-06-14T07:23:55;20.00;64.50
12125;DHT22;6126;57.908;16.490;2023-06-14T07:26:22;20.10;64.20
12125;DHT22;6126;57.908;16.490;2023-06-14T07:28:49;20.20;64.00
12125;DHT22;6126;57.908;16.490;2023-06-14T07:31:15;20.20;63.70
12125;DHT22;6126;57.908;16.490;2023-06-14T07:33:42;20.30;63.50
12125;DHT22;6126;57.908;16.490;2023-06-14T07:36:08;20.40;63.30
12125;DHT22;6126;57.908;16.490;2023-06-14T07:38:34;20.50;63.00
12125;DHT22;6126;57.908;16.490;2023-06-14T07:41:00;20.60;62.70
12125;DHT22;6126;57.908;16.490;2023-06-14T07:43:27;20.70;63.10
12125;DHT22;6126;57.908;16.490;2023-06-14T07:45:53;20.80;61.90
12125;DHT22;6126;57.908;16.490;2023-06-14T07:48:19;20.90;61.60
12125;DHT22;6126;57.908;16.490;2023-06-14T07:50:45;21.10;61.30
12125;DHT22;6126;57.908;16.490;2023-06-14T07:53:11;21.20;60.90
12125;DHT22;6126;57.908;16.490;2023-06-14T07:55:36;21.40;60.50
12125;DHT22;6126;57.908;16.490;2023-06-14T07:58:03;21.50;60.10
12125;DHT22;6126;57.908;16.490;2023-06-14T08:00:29;21.70;59.90
12125;DHT22;6126;57.908;16.490;2023-06-14T08:02:56;21.80;59.50
12125;DHT22;6126;57.908;16.490;2023-06-14T08:05:24;21.90;59.30
12125;DHT22;6126;57.908;16.490;2023-06-14T08:07:51;22.00;59.10
12125;DHT22;6126;57.908;16.490;2023-06-14T08:10:18;22.10;59.00
12125;DHT22;6126;57.908;16.490;2023-06-14T08:12:43;22.10;58.70
12125;DHT22;6126;57.908;16.490;2023-06-14T08:15:10;22.20;58.50
12125;DHT22;6126;57.908;16.490;2023-06-14T08:17:36;22.20;58.30
12125;DHT22;6126;57.908;16.490;2023-06-14T08:20:03;22.30;58.80
12125;DHT22;6126;57.908;16.490;2023-06-14T08:22:30;22.40;58.10
12125;DHT22;6126;57.908;16.490;2023-06-14T08:25:00;22.40;57.80
12125;DHT22;6126;57.908;16.490;2023-06-14T08:27:26;22.50;57.70
12125;DHT22;6126;57.908;16.490;2023-06-14T08:29:53;22.50;57.40
12125;DHT22;6126;57.908;16.490;2023-06-14T08:32:19;22.60;57.30
12125;DHT22;6126;57.908;16.490;2023-06-14T08:34:45;22.70;57.20
12125;DHT22;6126;57.908;16.490;2023-06-14T08:37:11;22.70;57.00
12125;DHT22;6126;57.908;16.490;2023-06-14T08:39:37;22.90;56.90
12125;DHT22;6126;57.908;16.490;2023-06-14T08:42:04;22.90;56.60
12125;DHT22;6126;57.908;16.490;2023-06-14T08:44:33;23.00;56.40
12125;DHT22;6126;57.908;16.490;2023-06-14T08:47:02;23.20;56.30
12125;DHT22;6126;57.908;16.490;2023-06-14T08:49:31;23.30;56.10
12125;DHT22;6126;57.908;16.490;2023-06-14T08:51:59;23.30;55.80
12125;DHT22;6126;57.908;16.490;2023-06-14T08:54:29;23.40;55.60
12125;DHT22;6126;57.908;16.490;2023-06-14T08:56:59;23.40;55.50
12125;DHT22;6126;57.908;16.490;2023-06-14T08:59:28;23.50;55.30
12125;DHT22;6126;57.908;16.490;2023-06-14T09:01:56;23.60;55.10
12125;DHT22;6126;57.908;16.490;2023-06-14T09:04:23;23.70;54.90
12125;DHT22;6126;57.908;16.490;2023-06-14T09:06:55;23.80;54.70
12125;DHT22;6126;57.908;16.490;2023-06-14T09:09:22;23.90;54.60
12125;DHT22;6126;57.908;16.490;2023-06-14T09:11:52;23.90;54.50
12125;DHT22;6126;57.908;16.490;2023-06-14T09:14:19;23.90;54.30
12125;DHT22;6126;57.908;16.490;2023-06-14T09:16:45;23.80;54.20
12125;DHT22;6126;57.908;16.490;2023-06-14T09:19:24;23.90;54.20
12125;DHT22;6126;57.908;16.490;2023-06-14T09:21:50;23.80;54.10
12125;DHT22;6126;57.908;16.490;2023-06-14T09:24:19;23.80;54.00
12125;DHT22;6126;57.908;16.490;2023-06-14T09:26:50;23.90;54.00
12125;DHT22;6126;57.908;16.490;2023-06-14T09:29:17;23.90;53.90
12125;DHT22;6126;57.908;16.490;2023-06-14T09:31:46;23.90;53.90
12125;DHT22;6126;57.908;16.490;2023-06-14T09:34:13;23.90;53.80
12125;DHT22;6126;57.908;16.490;2023-06-14T09:36:40;24.00;53.70
12125;DHT22;6126;57.908;16.490;2023-06-14T09:39:08;24.00;53.50
12125;DHT22;6126;57.908;16.490;2023-06-14T09:41:35;24.00;53.40
12125;DHT22;6126;57.908;16.490;2023-06-14T09:44:04;24.00;53.20
12125;DHT22;6126;57.908;16.490;2023-06-14T09:46:32;24.00;53.10
12125;DHT22;6126;57.908;16.490;2023-06-14T09:48:59;24.00;53.20
12125;DHT22;6126;57.908;16.490;2023-06-14T09:51:27;24.00;53.20
12125;DHT22;6126;57.908;16.490;2023-06-14T09:54:01;24.00;53.20
12125;DHT22;6126;57.908;16.490;2023-06-14T09:56:38;24.00;53.20
12125;DHT22;6126;57.908;16.490;2023-06-14T09:59:10;24.00;52.90
12125;DHT22;6126;57.908;16.490;2023-06-14T10:01:48;24.20;52.80
12125;DHT22;6126;57.908;16.490;2023-06-14T10:04:15;24.30;52.60
12125;DHT22;6126;57.908;16.490;2023-06-14T10:06:47;24.30;52.50
12125;DHT22;6126;57.908;16.490;2023-06-14T10:09:14;24.30;52.50
12125;DHT22;6126;57.908;16.490;2023-06-14T10:11:40;24.20;52.50
12125;DHT22;6126;57.908;16.490;2023-06-14T10:14:11;24.30;52.60
12125;DHT22;6126;57.908;16.490;2023-06-14T10:17:00;24.20;52.40
12125;DHT22;6126;57.908;16.490;2023-06-14T10:19:34;24.20;52.40
12125;DHT22;6126;57.908;16.490;2023-06-14T10:22:47;24.20;52.40
12125;DHT22;6126;57.908;16.490;2023-06-14T10:25:30;24.20;52.20
12125;DHT22;6126;57.908;16.490;2023-06-14T10:28:23;24.30;52.10
12125;DHT22;6126;57.908;16.490;2023-06-14T10:33:29;24.40;51.50
12125;DHT22;6126;57.908;16.490;2023-06-14T10:36:31;24.50;51.30
12125;DHT22;6126;57.908;16.490;2023-06-14T10:39:14;24.50;51.00
12125;DHT22;6126;57.908;16.490;2023-06-14T10:41:55;24.60;51.00
12125;DHT22;6126;57.908;16.490;2023-06-14T10:46:48;24.50;50.70
12125;DHT22;6126;57.908;16.490;2023-06-14T10:49:40;24.50;50.60
12125;DHT22;6126;57.908;16.490;2023-06-14T10:52:15;24.60;50.50
12125;DHT22;6126;57.908;16.490;2023-06-14T10:57:58;24.70;50.40
12125;DHT22;6126;57.908;16.490;2023-06-14T11:00:28;24.60;50.40
12125;DHT22;6126;57.908;16.490;2023-06-14T11:06:15;24.50;50.60
12125;DHT22;6126;57.908;16.490;2023-06-14T11:09:10;24.40;50.50
12125;DHT22;6126;57.908;16.490;2023-06-14T11:11:42;24.50;50.60
12125;DHT22;6126;57.908;16.490;2023-06-14T11:14:10;24.50;50.60
12125;DHT22;6126;57.908;16.490;2023-06-14T11:16:36;24.50;50.50
12125;DHT22;6126;57.908;16.490;2023-06-14T11:19:02;24.50;50.30
12125;DHT22;6126;57.908;16.490;2023-06-14T11:21:34;24.50;50.30
12125;DHT22;6126;57.908;16.490;2023-06-14T11:24:10;24.50;50.40
12125;DHT22;6126;57.908;16.490;2023-06-14T11:26:37;24.50;50.40
12125;DHT22;6126;57.908;16.490;2023-06-14T11:29:05;24.50;50.50
12125;DHT22;6126;57.908;16.490;2023-06-14T11:31:32;24.40;50.50
12125;DHT22;6126;57.908;16.490;2023-06-14T11:33:59;24.40;50.50
12125;DHT22;6126;57.908;16.490;2023-06-14T11:36:30;24.40;50.60
12125;DHT22;6126;57.908;16.490;2023-06-14T11:41:32;24.40;50.40
12125;DHT22;6126;57.908;16.490;2023-06-14T11:44:01;24.40;50.20
12125;DHT22;6126;57.908;16.490;2023-06-14T11:46:28;24.40;50.10
12125;DHT22;6126;57.908;16.490;2023-06-14T11:48:54;24.40;49.90
12125;DHT22;6126;57.908;16.490;2023-06-14T11:51:20;24.50;49.80
12125;DHT22;6126;57.908;16.490;2023-06-14T11:53:46;24.60;49.60
12125;DHT22;6126;57.908;16.490;2023-06-14T11:56:13;24.60;49.30
12125;DHT22;6126;57.908;16.490;2023-06-14T11:58:39;24.60;49.20
12125;DHT22;6126;57.908;16.490;2023-06-14T12:01:05;24.70;49.10
12125;DHT22;6126;57.908;16.490;2023-06-14T12:03:32;24.70;48.90
12125;DHT22;6126;57.908;16.490;2023-06-14T12:06:08;24.80;48.80
12125;DHT22;6126;57.908;16.490;2023-06-14T12:08:38;24.80;48.70
12125;DHT22;6126;57.908;16.490;2023-06-14T12:11:14;24.80;48.50
12125;DHT22;6126;57.908;16.490;2023-06-14T12:13:42;24.80;48.40
12125;DHT22;6126;57.908;16.490;2023-06-14T12:16:09;24.90;48.40
12125;DHT22;6126;57.908;16.490;2023-06-14T12:18:38;24.90;48.40
12125;DHT22;6126;57.908;16.490;2023-06-14T12:21:06;24.90;49.00
12125;DHT22;6126;57.908;16.490;2023-06-14T12:23:43;24.80;48.30
12125;DHT22;6126;57.908;16.490;2023-06-14T12:26:24;24.90;48.40
12125;DHT22;6126;57.908;16.490;2023-06-14T12:28:52;24.90;48.30
12125;DHT22;6126;57.908;16.490;2023-06-14T12:31:18;24.90;48.20
12125;DHT22;6126;57.908;16.490;2023-06-14T12:33:44;24.90;48.00
12125;DHT22;6126;57.908;16.490;2023-06-14T12:36:14;24.90;47.90
12125;DHT22;6126;57.908;16.490;2023-06-14T12:38:40;25.00;48.10
12125;DHT22;6126;57.908;16.490;2023-06-14T12:41:07;24.90;48.10
12125;DHT22;6126;57.908;16.490;2023-06-14T12:43:33;24.90;48.10
12125;DHT22;6126;57.908;16.490;2023-06-14T12:46:00;24.90;48.00
12125;DHT22;6126;57.908;16.490;2023-06-14T12:48:26;24.90;47.90
12125;DHT22;6126;57.908;16.490;2023-06-14T12:50:57;24.90;47.80
12125;DHT22;6126;57.908;16.490;2023-06-14T12:53:23;24.90;47.70
12125;DHT22;6126;57.908;16.490;2023-06-14T12:55:49;24.90;47.60
12125;DHT22;6126;57.908;16.490;2023-06-14T12:58:16;24.90;47.40
12125;DHT22;6126;57.908;16.490;2023-06-14T13:00:43;25.00;47.20
12125;DHT22;6126;57.908;16.490;2023-06-14T13:03:10;25.00;47.10
12125;DHT22;6126;57.908;16.490;2023-06-14T13:05:36;24.90;46.90
12125;DHT22;6126;57.908;16.490;2023-06-14T13:08:02;24.90;46.90
12125;DHT22;6126;57.908;16.490;2023-06-14T13:10:29;24.80;46.80
12125;DHT22;6126;57.908;16.490;2023-06-14T13:12:54;24.80;46.90
12125;DHT22;6126;57.908;16.490;2023-06-14T13:15:20;24.80;46.80
12125;DHT22;6126;57.908;16.490;2023-06-14T13:17:46;24.80;46.60
12125;DHT22;6126;57.908;16.490;2023-06-14T13:20:14;24.80;46.50
12125;DHT22;6126;57.908;16.490;2023-06-14T13:22:42;24.80;46.40
12125;DHT22;6126;57.908;16.490;2023-06-14T13:25:08;24.80;46.30
12125;DHT22;6126;57.908;16.490;2023-06-14T13:27:34;24.80;46.30
12125;DHT22;6126;57.908;16.490;2023-06-14T13:30:00;24.80;46.20
12125;DHT22;6126;57.908;16.490;2023-06-14T13:32:26;24.80;46.20
12125;DHT22;6126;57.908;16.490;2023-06-14T13:34:52;24.80;46.10
12125;DHT22;6126;57.908;16.490;2023-06-14T13:37:17;24.80;46.10
12125;DHT22;6126;57.908;16.490;2023-06-14T13:39:43;24.80;46.00
12125;DHT22;6126;57.908;16.490;2023-06-14T13:42:09;24.70;46.00
12125;DHT22;6126;57.908;16.490;2023-06-14T13:44:36;24.70;46.00
12125;DHT22;6126;57.908;16.490;2023-06-14T13:47:01;24.60;45.90
12125;DHT22;6126;57.908;16.490;2023-06-14T13:49:27;24.60;45.90
12125;DHT22;6126;57.908;16.490;2023-06-14T13:51:53;24.60;45.90
12125;DHT22;6126;57.908;16.490;2023-06-14T13:54:20;24.70;45.90
12125;DHT22;6126;57.908;16.490;2023-06-14T13:56:47;24.70;45.80
12125;DHT22;6126;57.908;16.490;2023-06-14T13:59:13;24.70;45.70
12125;DHT22;6126;57.908;16.490;2023-06-14T14:01:39;24.60;45.60
12125;DHT22;6126;57.908;16.490;2023-06-14T14:04:05;24.60;45.60
12125;DHT22;6126;57.908;16.490;2023-06-14T14:06:31;24.60;45.70
12125;DHT22;6126;57.908;16.490;2023-06-14T14:08:57;24.60;45.80
12125;DHT22;6126;57.908;16.490;2023-06-14T14:11:23;24.60;45.80
12125;DHT22;6126;57.908;16.490;2023-06-14T14:13:49;24.60;45.80
12125;DHT22;6126;57.908;16.490;2023-06-14T14:16:15;24.60;45.80
12125;DHT22;6126;57.908;16.490;2023-06-14T14:18:41;24.60;45.90
12125;DHT22;6126;57.908;16.490;2023-06-14T14:21:07;24.60;46.00
12125;DHT22;6126;57.908;16.490;2023-06-14T14:23:33;24.60;46.00
12125;DHT22;6126;57.908;16.490;2023-06-14T14:25:59;24.60;46.20
12125;DHT22;6126;57.908;16.490;2023-06-14T14:28:28;24.50;46.20
12125;DHT22;6126;57.908;16.490;2023-06-14T14:30:55;24.60;46.20
12125;DHT22;6126;57.908;16.490;2023-06-14T14:33:20;24.60;46.00
12125;DHT22;6126;57.908;16.490;2023-06-14T14:35:47;24.60;46.00
12125;DHT22;6126;57.908;16.490;2023-06-14T14:38:14;24.60;46.00
12125;DHT22;6126;57.908;16.490;2023-06-14T14:40:44;24.50;46.00
12125;DHT22;6126;57.908;16.490;2023-06-14T14:43:10;24.50;46.20
12125;DHT22;6126;57.908;16.490;2023-06-14T14:45:36;24.50;46.20
12125;DHT22;6126;57.908;16.490;2023-06-14T14:48:03;24.50;46.30
12125;DHT22;6126;57.908;16.490;2023-06-14T14:50:29;24.40;46.20
12125;DHT22;6126;57.908;16.490;2023-06-14T14:52:55;24.30;46.30
12125;DHT22;6126;57.908;16.490;2023-06-14T14:55:21;24.30;46.40
12125;DHT22;6126;57.908;16.490;2023-06-14T14:57:47;24.30;46.50
12125;DHT22;6126;57.908;16.490;2023-06-14T15:00:13;24.30;46.50
12125;DHT22;6126;57.908;16.490;2023-06-14T15:02:40;24.30;46.40
12125;DHT22;6126;57.908;16.490;2023-06-14T15:05:06;24.20;46.20
12125;DHT22;6126;57.908;16.490;2023-06-14T15:07:32;24.20;46.10
12125;DHT22;6126;57.908;16.490;2023-06-14T15:09:59;24.30;46.10
12125;DHT22;6126;57.908;16.490;2023-06-14T15:12:26;24.20;45.80
12125;DHT22;6126;57.908;16.490;2023-06-14T15:14:52;24.20;45.70
12125;DHT22;6126;57.908;16.490;2023-06-14T15:17:21;24.20;45.50
12125;DHT22;6126;57.908;16.490;2023-06-14T15:19:48;24.20;45.40
12125;DHT22;6126;57.908;16.490;2023-06-14T15:22:14;24.10;45.30
12125;DHT22;6126;57.908;16.490;2023-06-14T15:24:41;24.10;45.20
12125;DHT22;6126;57.908;16.490;2023-06-14T15:27:07;24.00;45.10
12125;DHT22;6126;57.908;16.490;2023-06-14T15:29:34;24.00;45.00
12125;DHT22;6126;57.908;16.490;2023-06-14T15:32:03;24.00;44.90
12125;DHT22;6126;57.908;16.490;2023-06-14T15:34:31;24.00;44.80
12125;DHT22;6126;57.908;16.490;2023-06-14T15:36:57;24.00;44.70
12125;DHT22;6126;57.908;16.490;2023-06-14T15:39:23;23.90;44.70
12125;DHT22;6126;57.908;16.490;2023-06-14T15:41:50;23.90;44.70
12125;DHT22;6126;57.908;16.490;2023-06-14T15:44:19;23.90;44.60
12125;DHT22;6126;57.908;16.490;2023-06-14T15:46:45;23.90;44.60
12125;DHT22;6126;57.908;16.490;2023-06-14T15:49:12;24.00;44.60
12125;DHT22;6126;57.908;16.490;2023-06-14T15:51:39;23.90;44.50
12125;DHT22;6126;57.908;16.490;2023-06-14T15:54:05;23.90;44.50